Hanjin Phoenix — A8CN9 — position and weather

sailwx.info

Track history (hours):
 
Tides and Currents Weather Stations Pressure Air Temp Water Temp Dewpoint Dewpoint Depression Visibility Wind Speed Wind Dir Waves Ship Positions

Hanjin Phoenix

Last reported at 2014-Sep-19 20:33 UTC. Time now 2014-Sep-19 21:59 UTC.
Position N 48°22' W 006°24'.

Length 282.1 m; beam 32.2 m; draft 13 m.

Type: Cargo ship. MMSI: 636090671.

Date/timePositionNaut miles runAvg speedWind from/ knotsBaromVisibWave heightAir tempDewpointWater temp
2014-Sep-19 20:33N 48°22' W 006°24'2 0.6
2014-Sep-19 16:33N 48°22' W 006°21'0 0.1
2014-Sep-19 13:33N 48°22' W 006°20'3 0.8
2014-Sep-19 09:33N 48°19' W 006°22'3 0.5
2014-Sep-19 04:33N 48°17' W 006°23'2 0.5
2014-Sep-19 01:33N 48°15' W 006°23'6 0.6
2014-Sep-18 16:33N 48°11' W 006°27'5 0.5
2014-Sep-18 05:33N 48°13' W 006°20'22211.1
2014-Sep-17 09:32N 50°14' W 001°35'1313.3
2014-Sep-17 08:33N 50°18' W 001°15'1413.8
2014-Sep-17 07:33N 50°22' W 000°54'1313.3
2014-Sep-17 06:33N 50°25' W 000°34'1312.8
2014-Sep-17 05:33N 50°28' W 000°15'1212.2
2014-Sep-17 04:33N 50°32' E 000°04'1211.7
2014-Sep-17 03:33N 50°35' E 000°21'1111.1
2014-Sep-17 02:33N 50°39' E 000°37'1111.5
2014-Sep-17 01:33N 50°46' E 000°52'1312.3
2014-Sep-17 00:30N 50°54' E 001°09'1313.4
2014-Sep-16 23:34N 51°02' E 001°24'1312.9
2014-Sep-16 22:33N 51°11' E 001°39'1212.0
2014-Sep-16 21:33N 51°20' E 001°51'1111.0
2014-Sep-16 20:33N 51°29' E 002°01'1110.6
2014-Sep-16 19:33N 51°37' E 002°12'1010.4
2014-Sep-16 18:33N 51°45' E 002°23'1110.7
2014-Sep-16 17:33N 51°53' E 002°34'1211.3
2014-Sep-16 16:33N 52°02' E 002°47'2512.5
2014-Sep-16 14:32N 52°22' E 003°12'1313.0
2014-Sep-16 13:33N 52°32' E 003°24'10011.1
2014-Sep-16 04:31N 53°58' E 004°51'1311.5
2014-Sep-16 03:23N 54°10' E 005°00'911.4
2014-Sep-16 02:33N 54°19' E 005°06'28110.4
2014-Sep-14 23:31N 57°48' E 010°41'1111.5
2014-Sep-14 22:33N 57°42' E 010°58'1110.9
2014-Sep-14 21:33N 57°35' E 011°13'1110.9
2014-Sep-14 20:33N 57°27' E 011°27'1110.8
2014-Sep-14 19:34N 57°17' E 011°33'1110.6
2014-Sep-14 18:31N 57°06' E 011°40'1010.5
2014-Sep-14 17:32N 56°56' E 011°46'1010.4
2014-Sep-14 16:33N 56°47' E 011°53'1010.1
2014-Sep-14 15:33N 56°37' E 011°46'10110.9
2014-Sep-14 06:17N 54°59' E 011°02'1215.7
2014-Sep-14 05:33N 54°49' E 010°52'1212.0
2014-Sep-14 04:33N 54°39' E 011°03'1212.1
2014-Sep-14 03:34N 54°33' E 011°21'1211.8
2014-Sep-14 02:33N 54°28' E 011°39'1111.4
2014-Sep-14 01:33N 54°26' E 011°59'5811.2
2014-Sep-13 20:21N 54°56' E 013°25'1512.1
2014-Sep-13 19:09N 55°01' E 013°49'712.0
2014-Sep-13 18:33N 55°04' E 014°00'1411.9
2014-Sep-13 17:24N 55°14' E 014°18'1112.1
2014-Sep-13 16:31N 55°22' E 014°30'3512.0
2014-Sep-13 13:33N 55°41' E 015°22'1212.1
2014-Sep-13 12:33N 55°47' E 015°41'1312.1
2014-Sep-13 11:31N 55°52' E 016°01'6 6.1
2014-Sep-13 10:32N 55°53' E 016°12'2 1.9
2014-Sep-13 09:34N 55°54' E 016°14'2 1.9
2014-Sep-13 08:33N 55°55' E 016°17'2 2.0
2014-Sep-13 07:34N 55°57' E 016°20'2 2.0
2014-Sep-13 06:33N 55°58' E 016°23'8 8.0
2014-Sep-13 05:33N 56°04' E 016°32'1212.0
2014-Sep-13 04:33N 56°10' E 016°50'1212.0
2014-Sep-13 03:33N 56°18' E 017°07'1211.9
2014-Sep-13 02:32N 56°26' E 017°24'5112.0
2014-Sep-12 22:18N 56°58' E 018°35'1012.1
2014-Sep-12 21:31N 57°06' E 018°46'1511.9
2014-Sep-12 20:15N 57°18' E 019°02'1012.0
2014-Sep-12 19:27N 57°26' E 019°13'1411.8
2014-Sep-12 18:17N 57°37' E 019°28'1311.9
2014-Sep-12 17:12N 57°47' E 019°42'10311.8
2014-Sep-12 08:30N 59°10' E 021°39'4210.6
2014-Sep-12 04:32N 59°33' E 022°48'1110.7
2014-Sep-12 03:33N 59°36' E 023°08'1110.7
2014-Sep-12 02:34N 59°39' E 023°28'1010.2
2014-Sep-12 01:33N 59°42' E 023°48'1110.5
2014-Sep-12 00:33N 59°45' E 024°08'1110.5
2014-Sep-11 23:28N 59°48' E 024°30'1310.3
2014-Sep-11 22:11N 59°50' E 024°56'710.4
2014-Sep-11 21:33N 59°51' E 025°08'1010.4
2014-Sep-11 20:34N 59°53' E 025°28'1010.2
2014-Sep-11 19:33N 59°55' E 025°49'1010.4
2014-Sep-11 18:34N 59°58' E 026°08'1010.4
2014-Sep-11 17:33N 60°01' E 026°29'1010.5
2014-Sep-11 16:33N 60°00' E 026°50'1010.0
2014-Sep-11 15:32N 60°01' E 027°10'  
Track history (hours):
 
Tides and Currents Weather Stations Pressure Air Temp Water Temp Dewpoint Dewpoint Depression Visibility Wind Speed Wind Dir Waves Ship Positions

Hanjin Phoenix

Last reported at 2014-Sep-19 20:33 UTC. Time now 2014-Sep-19 21:59 UTC.
Position N 48°22' W 006°24'.

Length 282.1 m; beam 32.2 m; draft 13 m.

Type: Cargo ship. MMSI: 636090671.

Date/timePositionNaut miles runAvg speedWind from/ knotsBaromVisibWave heightAir tempDewpointWater temp
2014-Sep-19 20:33N 48°22' W 006°24'2 0.6
2014-Sep-19 16:33N 48°22' W 006°21'0 0.1
2014-Sep-19 13:33N 48°22' W 006°20'3 0.8
2014-Sep-19 09:33N 48°19' W 006°22'3 0.5
2014-Sep-19 04:33N 48°17' W 006°23'2 0.5
2014-Sep-19 01:33N 48°15' W 006°23'6 0.6
2014-Sep-18 16:33N 48°11' W 006°27'5 0.5
2014-Sep-18 05:33N 48°13' W 006°20'22211.1
2014-Sep-17 09:32N 50°14' W 001°35'1313.3
2014-Sep-17 08:33N 50°18' W 001°15'1413.8
2014-Sep-17 07:33N 50°22' W 000°54'1313.3
2014-Sep-17 06:33N 50°25' W 000°34'1312.8
2014-Sep-17 05:33N 50°28' W 000°15'1212.2
2014-Sep-17 04:33N 50°32' E 000°04'1211.7
2014-Sep-17 03:33N 50°35' E 000°21'1111.1
2014-Sep-17 02:33N 50°39' E 000°37'1111.5
2014-Sep-17 01:33N 50°46' E 000°52'1312.3
2014-Sep-17 00:30N 50°54' E 001°09'1313.4
2014-Sep-16 23:34N 51°02' E 001°24'1312.9
2014-Sep-16 22:33N 51°11' E 001°39'1212.0
2014-Sep-16 21:33N 51°20' E 001°51'1111.0
2014-Sep-16 20:33N 51°29' E 002°01'1110.6
2014-Sep-16 19:33N 51°37' E 002°12'1010.4
2014-Sep-16 18:33N 51°45' E 002°23'1110.7
2014-Sep-16 17:33N 51°53' E 002°34'1211.3
2014-Sep-16 16:33N 52°02' E 002°47'2512.5
2014-Sep-16 14:32N 52°22' E 003°12'1313.0
2014-Sep-16 13:33N 52°32' E 003°24'10011.1
2014-Sep-16 04:31N 53°58' E 004°51'1311.5
2014-Sep-16 03:23N 54°10' E 005°00'911.4
2014-Sep-16 02:33N 54°19' E 005°06'28110.4
2014-Sep-14 23:31N 57°48' E 010°41'1111.5
2014-Sep-14 22:33N 57°42' E 010°58'1110.9
2014-Sep-14 21:33N 57°35' E 011°13'1110.9
2014-Sep-14 20:33N 57°27' E 011°27'1110.8
2014-Sep-14 19:34N 57°17' E 011°33'1110.6
2014-Sep-14 18:31N 57°06' E 011°40'1010.5
2014-Sep-14 17:32N 56°56' E 011°46'1010.4
2014-Sep-14 16:33N 56°47' E 011°53'1010.1
2014-Sep-14 15:33N 56°37' E 011°46'10110.9
2014-Sep-14 06:17N 54°59' E 011°02'1215.7
2014-Sep-14 05:33N 54°49' E 010°52'1212.0
2014-Sep-14 04:33N 54°39' E 011°03'1212.1
2014-Sep-14 03:34N 54°33' E 011°21'1211.8
2014-Sep-14 02:33N 54°28' E 011°39'1111.4
2014-Sep-14 01:33N 54°26' E 011°59'5811.2
2014-Sep-13 20:21N 54°56' E 013°25'1512.1
2014-Sep-13 19:09N 55°01' E 013°49'712.0
2014-Sep-13 18:33N 55°04' E 014°00'1411.9
2014-Sep-13 17:24N 55°14' E 014°18'1112.1
2014-Sep-13 16:31N 55°22' E 014°30'3512.0
2014-Sep-13 13:33N 55°41' E 015°22'1212.1
2014-Sep-13 12:33N 55°47' E 015°41'1312.1
2014-Sep-13 11:31N 55°52' E 016°01'6 6.1
2014-Sep-13 10:32N 55°53' E 016°12'2 1.9
2014-Sep-13 09:34N 55°54' E 016°14'2 1.9
2014-Sep-13 08:33N 55°55' E 016°17'2 2.0
2014-Sep-13 07:34N 55°57' E 016°20'2 2.0
2014-Sep-13 06:33N 55°58' E 016°23'8 8.0
2014-Sep-13 05:33N 56°04' E 016°32'1212.0
2014-Sep-13 04:33N 56°10' E 016°50'1212.0
2014-Sep-13 03:33N 56°18' E 017°07'1211.9
2014-Sep-13 02:32N 56°26' E 017°24'5112.0
2014-Sep-12 22:18N 56°58' E 018°35'1012.1
2014-Sep-12 21:31N 57°06' E 018°46'1511.9
2014-Sep-12 20:15N 57°18' E 019°02'1012.0
2014-Sep-12 19:27N 57°26' E 019°13'1411.8
2014-Sep-12 18:17N 57°37' E 019°28'1311.9
2014-Sep-12 17:12N 57°47' E 019°42'10311.8
2014-Sep-12 08:30N 59°10' E 021°39'4210.6
2014-Sep-12 04:32N 59°33' E 022°48'1110.7
2014-Sep-12 03:33N 59°36' E 023°08'1110.7
2014-Sep-12 02:34N 59°39' E 023°28'1010.2
2014-Sep-12 01:33N 59°42' E 023°48'1110.5
2014-Sep-12 00:33N 59°45' E 024°08'1110.5
2014-Sep-11 23:28N 59°48' E 024°30'1310.3
2014-Sep-11 22:11N 59°50' E 024°56'710.4
2014-Sep-11 21:33N 59°51' E 025°08'1010.4
2014-Sep-11 20:34N 59°53' E 025°28'1010.2
2014-Sep-11 19:33N 59°55' E 025°49'1010.4
2014-Sep-11 18:34N 59°58' E 026°08'1010.4
2014-Sep-11 17:33N 60°01' E 026°29'1010.5
2014-Sep-11 16:33N 60°00' E 026°50'1010.0
2014-Sep-11 15:32N 60°01' E 027°10'  

Dump ship's entire track history